LTCK/MSR METAR and TAF weather

Enter ICAO airport designator
Station Type Date Time Source
LTCK METAR 2021/04/14 12:50 UTC NOAA

LTCK 141250Z VRB03KT 9999 SCT035 14/02 Q1019


Station Type Date Time Source
LTCK Decoded METAR 2021/04/14 12:50 UTC NOAA

Mus Tur-Afb , Turkey (LTCK) 38-45N 041-40E
Apr 14, 2021 - 08:50 AM EDT / 2021.04.14 1250 UTC
Wind: Variable at 3 MPH (3 KT):0
Visibility: greater than 7 mile(s):0
Sky conditions: partly cloudy
Temperature: 57 F (14 C)
Dew Point: 35 F (2 C)
Relative Humidity: 44%
Pressure (altimeter): 30.09 in. Hg (1019 hPa)
ob: LTCK 141250Z VRB03KT 9999 SCT035 14/02 Q1019
cycle: 13

Station Type Date Time Source
LTCK TAF UTC NOAA

Error!

Example: see airport list